This is the latest recevied weather packets stored in our database for station/object KQ4PPF. If no packets are shown the sender has not sent any weather packets the latest 10 day(s).
| Time | Temp. | Humidity | Pressure | Rain* | Wind** | Luminosity | Snow |
|---|---|---|---|---|---|---|---|
| 1777567385 | 19.44° C | 54% | 1013.8 hPa | 0 mm | - | 628 W/m² | - |
| 1777567084 | 19.44° C | 56% | 1013.6 hPa | 0 mm | - | 699 W/m² | - |
| 1777566781 | 18.89° C | 54% | 1013.7 hPa | 0 mm | - | 597 W/m² | - |
| 1777566478 | 18.89° C | 58% | 1013.7 hPa | 0 mm | - | 548 W/m² | - |
| 1777566176 | 18.89° C | 56% | 1013.9 hPa | 0 mm | - | 501 W/m² | - |
| 1777565871 | 18.33° C | 55% | 1013.7 hPa | 0 mm | - | 593 W/m² | - |
| 1777565567 | 18.89° C | 54% | 1014.1 hPa | 0 mm | - | 521 W/m² | - |
| 1777565264 | 18.89° C | 57% | 1013.9 hPa | 0 mm | - | 804 W/m² | - |
| 1777564961 | 18.89° C | 57% | 1013.9 hPa | 0 mm | - | 383 W/m² | - |
| 1777564656 | 18.89° C | 58% | 1013.9 hPa | 0 mm | - | 781 W/m² | - |
| 1777564351 | 18.33° C | 58% | 1013.5 hPa | 0 mm | - | 557 W/m² | - |
| 1777564047 | 18.89° C | 61% | 1014.1 hPa | 0 mm | - | 486 W/m² | - |
| 1777563743 | 18.33° C | 59% | 1013.8 hPa | 0 mm | - | 667 W/m² | - |
| 1777563440 | 18.89° C | 58% | 1013.7 hPa | 0 mm | - | 414 W/m² | - |
| 1777563134 | 18.33° C | 59% | 1013.6 hPa | 0 mm | - | 588 W/m² | - |
| 1777562830 | 18.33° C | 59% | 1013.7 hPa | 0 mm | - | 631 W/m² | - |
| 1777562528 | 17.78° C | 59% | 1013.6 hPa | 0 mm | - | 700 W/m² | - |
| 1777562226 | 17.78° C | 58% | 1013.8 hPa | 0 mm | - | 680 W/m² | - |
| 1777561924 | 17.78° C | 59% | 1013.7 hPa | 0 mm | - | 656 W/m² | - |
| 1777561620 | 18.33° C | 59% | 1014 hPa | 0 mm | - | 561 W/m² | - |
| 1777561316 | 17.78° C | 59% | 1013.7 hPa | 0 mm | - | 647 W/m² | - |
| 1777561016 | 17.78° C | 59% | 1013.5 hPa | 0 mm | - | 583 W/m² | - |
| 1777560711 | 17.22° C | 59% | 1013.6 hPa | 0 mm | - | 642 W/m² | - |
| 1777560409 | 17.22° C | 59% | 1013.8 hPa | 0 mm | - | 544 W/m² | - |
| 1777560107 | 17.22° C | 62% | 1013.8 hPa | 0 mm | - | 552 W/m² | - |
* Rain latest hour (hover to see other rain measurements)
** Current wind speed in m/s (hover to see current wind gust speed)